Time;durP1;ratioP1;P1;durP2;ratioP2;P2;SDS_P1;SDS_P2;PMS_P1;PMS_P2;Temp;Humidity;BMP_temperature;BMP_pressure;BME280_temperature;BME280_humidity;BME280_pressure;Samples;Min_cycle;Max_cycle;Signal;HPM_P1;HPM_P2
2024/03/15 00:01:38;;;;;;;22.10;13.60;;;12.20;99.90;;;;;;5101316;28;20067;-71
2024/03/15 00:04:04;;;;;;;23.35;14.38;;;12.20;99.90;;;;;;5102070;28;20050;-71
2024/03/15 00:06:30;;;;;;;26.13;14.15;;;12.20;99.90;;;;;;5102713;28;20500;-71
2024/03/15 00:08:56;;;;;;;21.83;14.27;;;12.20;99.90;;;;;;5102328;28;20048;-71
2024/03/15 00:11:22;;;;;;;22.63;14.73;;;12.20;99.90;;;;;;5100666;28;20040;-71
2024/03/15 00:13:49;;;;;;;24.50;14.55;;;12.20;99.90;;;;;;5101573;28;20156;-71
2024/03/15 00:16:14;;;;;;;24.80;14.73;;;12.20;99.90;;;;;;5102348;28;20024;-70
2024/03/15 00:18:40;;;;;;;23.15;14.43;;;12.20;99.90;;;;;;5101074;28;20027;-73
2024/03/15 00:21:06;;;;;;;23.67;14.30;;;12.10;99.90;;;;;;5102243;28;20027;-72
2024/03/15 00:23:32;;;;;;;28.83;15.48;;;12.10;99.90;;;;;;5102234;28;20027;-73
2024/03/15 00:26:01;;;;;;;25.92;14.95;;;12.10;99.90;;;;;;5101772;28;20019;-72
2024/03/15 00:28:26;;;;;;;26.38;15.25;;;12.10;99.90;;;;;;5101380;28;20035;-73
2024/03/15 00:30:52;;;;;;;22.17;14.40;;;12.00;99.90;;;;;;5100434;28;20044;-70
2024/03/15 00:33:17;;;;;;;24.48;14.38;;;12.00;99.90;;;;;;5101857;28;20091;-72
2024/03/15 00:35:43;;;;;;;25.63;14.90;;;12.00;99.90;;;;;;5101998;28;20032;-72
2024/03/15 00:38:09;;;;;;;27.35;15.63;;;11.90;99.90;;;;;;5101739;28;20039;-72
2024/03/15 00:40:34;;;;;;;25.52;15.27;;;11.90;99.90;;;;;;5101266;28;20012;-71
2024/03/15 00:43:03;;;;;;;27.08;15.40;;;11.90;99.90;;;;;;5100065;28;20028;-72
2024/03/15 00:45:29;;;;;;;25.52;15.02;;;11.90;99.90;;;;;;5101535;28;20028;-70
2024/03/15 00:47:55;;;;;;;30.40;16.35;;;11.90;99.90;;;;;;5101516;28;20477;-73
2024/03/15 00:50:20;;;;;;;25.65;14.85;;;11.80;99.90;;;;;;5102080;28;20027;-71
2024/03/15 00:52:46;;;;;;;25.25;14.27;;;11.80;99.90;;;;;;5101298;28;20032;-72
2024/03/15 00:55:12;;;;;;;24.15;14.52;;;11.80;99.90;;;;;;5101109;28;20481;-71
2024/03/15 00:57:38;;;;;;;27.25;15.60;;;11.80;99.90;;;;;;5101768;28;20043;-72
2024/03/15 01:00:04;;;;;;;23.45;14.95;;;11.80;99.90;;;;;;5101077;28;20017;-72
2024/03/15 01:02:30;;;;;;;28.58;14.68;;;11.80;99.90;;;;;;5101621;28;20036;-71
2024/03/15 01:04:56;;;;;;;25.05;14.90;;;11.80;99.90;;;;;;5101770;28;20055;-73
2024/03/15 01:07:22;;;;;;;26.35;14.30;;;11.80;99.90;;;;;;5101563;28;20412;-71
2024/03/15 01:09:48;;;;;;;27.42;14.23;;;11.70;99.90;;;;;;5101363;28;20052;-72
2024/03/15 01:12:14;;;;;;;29.20;14.95;;;11.70;99.90;;;;;;5102296;28;20040;-72
2024/03/15 01:14:40;;;;;;;26.60;12.98;;;11.70;99.90;;;;;;5104145;28;20016;-71
2024/03/15 01:17:07;;;;;;;22.83;13.75;;;11.70;99.90;;;;;;5105366;28;20696;-71
2024/03/15 01:19:33;;;;;;;23.20;14.15;;;11.60;99.90;;;;;;5104041;28;20016;-72
2024/03/15 01:22:00;;;;;;;22.60;13.10;;;11.70;99.90;;;;;;5105391;28;20020;-72
2024/03/15 01:24:26;;;;;;;25.65;14.00;;;11.70;99.90;;;;;;5104683;28;20095;-71
2024/03/15 01:26:52;;;;;;;22.98;12.90;;;11.70;99.90;;;;;;5105066;28;20083;-71
2024/03/15 01:29:17;;;;;;;23.17;14.05;;;11.70;99.90;;;;;;5103745;28;20028;-71
2024/03/15 01:31:43;;;;;;;19.65;12.85;;;11.60;99.90;;;;;;5105467;28;20123;-72
2024/03/15 01:34:09;;;;;;;21.33;14.18;;;11.60;99.90;;;;;;5105385;28;21546;-71
2024/03/15 01:36:35;;;;;;;23.48;13.40;;;11.60;99.90;;;;;;5103121;28;20501;-71
2024/03/15 01:39:00;;;;;;;25.27;13.63;;;11.60;99.90;;;;;;5105300;28;20028;-72
2024/03/15 01:41:26;;;;;;;23.58;13.95;;;11.60;99.90;;;;;;5103872;28;20028;-71
2024/03/15 01:43:51;;;;;;;22.48;14.10;;;11.60;99.90;;;;;;5104996;28;20411;-72
2024/03/15 01:46:17;;;;;;;25.70;14.30;;;11.60;99.90;;;;;;5103757;28;20028;-72
2024/03/15 01:48:44;;;;;;;24.58;14.35;;;11.60;99.90;;;;;;5103628;28;20078;-72
2024/03/15 01:51:11;;;;;;;24.80;14.18;;;11.60;99.90;;;;;;5104041;28;20044;-72
2024/03/15 01:53:37;;;;;;;24.77;14.30;;;11.60;99.90;;;;;;5103173;28;20028;-71
2024/03/15 01:56:03;;;;;;;23.25;13.50;;;11.60;99.90;;;;;;5103145;28;20038;-73
2024/03/15 01:58:29;;;;;;;25.75;14.32;;;11.60;99.90;;;;;;5104604;28;20078;-73
2024/03/15 02:00:56;;;;;;;25.33;13.88;;;11.60;99.90;;;;;;5103567;28;20019;-72
2024/03/15 02:03:25;;;;;;;24.75;14.23;;;11.60;99.90;;;;;;5104108;28;20086;-71
2024/03/15 02:05:51;;;;;;;24.13;13.90;;;11.60;99.90;;;;;;5104989;28;20032;-71
2024/03/15 02:08:18;;;;;;;24.13;13.57;;;11.60;99.90;;;;;;5105031;28;20170;-72
2024/03/15 02:10:44;;;;;;;22.50;14.25;;;11.60;99.90;;;;;;5104731;28;20053;-71
2024/03/15 02:13:10;;;;;;;23.00;14.23;;;11.60;99.90;;;;;;5103991;28;20028;-72
2024/03/15 02:15:36;;;;;;;22.25;14.13;;;11.60;99.90;;;;;;5105110;28;20081;-71
2024/03/15 02:18:02;;;;;;;25.27;14.85;;;11.60;99.90;;;;;;5103955;28;20028;-71
2024/03/15 02:20:27;;;;;;;24.85;14.52;;;11.60;99.90;;;;;;5105120;28;20488;-72
2024/03/15 02:22:53;;;;;;;22.30;14.10;;;11.50;99.90;;;;;;5103147;28;20032;-73
2024/03/15 02:25:19;;;;;;;22.90;14.38;;;11.50;99.90;;;;;;5104046;28;20032;-70
2024/03/15 02:27:44;;;;;;;22.08;14.32;;;11.50;99.90;;;;;;5103424;28;20074;-72
2024/03/15 02:30:11;;;;;;;25.35;13.90;;;11.50;99.90;;;;;;5103279;28;20037;-71
2024/03/15 02:32:38;;;;;;;21.83;13.18;;;11.50;99.90;;;;;;5104112;28;20035;-71
2024/03/15 02:35:07;;;;;;;20.92;13.63;;;11.50;99.90;;;;;;5103523;28;20411;-71
2024/03/15 02:37:33;;;;;;;21.60;13.23;;;11.50;99.90;;;;;;5103964;28;20016;-71
2024/03/15 02:39:58;;;;;;;20.85;12.48;;;11.50;99.90;;;;;;5104806;28;20051;-72
2024/03/15 02:42:24;;;;;;;20.20;12.65;;;11.50;99.90;;;;;;5104572;28;20488;-73
2024/03/15 02:44:49;;;;;;;20.48;12.75;;;11.50;99.90;;;;;;5104298;28;20024;-72
2024/03/15 02:47:15;;;;;;;20.88;13.27;;;11.50;99.90;;;;;;5104558;28;20032;-72
2024/03/15 02:49:41;;;;;;;20.38;12.70;;;11.50;99.90;;;;;;5104486;28;20029;-74
2024/03/15 02:52:06;;;;;;;18.65;12.32;;;11.50;99.90;;;;;;5104081;28;20491;-71
2024/03/15 02:54:32;;;;;;;21.25;12.30;;;11.50;99.90;;;;;;5103272;28;20024;-70
2024/03/15 02:56:58;;;;;;;20.55;11.80;;;11.50;99.90;;;;;;5104310;28;20016;-72
2024/03/15 02:59:24;;;;;;;19.50;12.35;;;11.50;99.90;;;;;;5104076;28;20046;-71
2024/03/15 03:01:51;;;;;;;23.02;11.63;;;11.50;99.90;;;;;;5104273;28;20016;-71
2024/03/15 03:04:18;;;;;;;20.75;12.40;;;11.50;99.90;;;;;;5103683;28;20043;-71
2024/03/15 03:06:45;;;;;;;23.58;13.10;;;11.50;99.90;;;;;;5103885;28;20088;-72
2024/03/15 03:09:17;;;;;;;21.70;12.40;;;11.50;99.90;;;;;;5103603;28;20036;-72
2024/03/15 03:11:42;;;;;;;20.83;12.63;;;11.50;99.90;;;;;;5103740;28;20078;-74
2024/03/15 03:14:09;;;;;;;22.08;12.35;;;11.50;99.90;;;;;;5103929;28;20024;-73
2024/03/15 03:16:35;;;;;;;21.58;12.13;;;11.50;99.90;;;;;;5102629;28;20047;-73
2024/03/15 03:19:02;;;;;;;24.17;12.88;;;11.50;99.90;;;;;;5103558;28;20032;-73
2024/03/15 03:21:28;;;;;;;21.92;13.13;;;11.40;99.90;;;;;;5103371;28;20039;-73
2024/03/15 03:24:00;;;;;;;20.05;12.40;;;11.50;99.90;;;;;;5103930;28;20050;-72
2024/03/15 03:26:27;;;;;;;21.13;12.30;;;11.40;99.90;;;;;;5103186;28;20012;-73
2024/03/15 03:28:53;;;;;;;21.17;12.65;;;11.40;99.90;;;;;;5103977;28;20024;-72
2024/03/15 03:31:22;;;;;;;20.38;12.60;;;11.40;99.90;;;;;;5103652;28;20038;-71
2024/03/15 03:33:47;;;;;;;21.55;12.38;;;11.40;99.90;;;;;;5102911;28;20020;-71
2024/03/15 03:36:13;;;;;;;25.15;13.70;;;11.30;99.90;;;;;;5103338;28;20162;-72
2024/03/15 03:38:42;;;;;;;21.20;13.05;;;11.30;99.90;;;;;;5103527;28;20043;-71
2024/03/15 03:41:08;;;;;;;23.85;13.32;;;11.30;99.90;;;;;;5102815;28;20016;-72
2024/03/15 03:43:34;;;;;;;24.98;12.65;;;11.20;99.90;;;;;;5103482;28;20027;-72
2024/03/15 03:46:00;;;;;;;20.42;11.77;;;11.20;99.90;;;;;;5103310;28;20044;-73
2024/03/15 03:48:25;;;;;;;26.92;13.27;;;11.20;99.90;;;;;;5103179;28;20032;-73
2024/03/15 03:50:51;;;;;;;21.23;12.63;;;11.20;99.90;;;;;;5103492;28;20027;-72
2024/03/15 03:53:16;;;;;;;19.33;11.88;;;11.20;99.90;;;;;;5101664;28;20012;-72
2024/03/15 03:55:42;;;;;;;21.50;12.60;;;11.10;99.90;;;;;;5103063;28;20028;-72
2024/03/15 03:58:14;;;;;;;20.75;12.20;;;11.10;99.90;;;;;;5101921;28;20016;-71
2024/03/15 04:00:40;;;;;;;23.52;12.18;;;11.10;99.90;;;;;;5102424;28;20031;-73
2024/03/15 04:03:06;;;;;;;25.95;12.98;;;11.10;99.90;;;;;;5098909;28;21058;-70
2024/03/15 04:05:31;;;;;;;20.17;12.88;;;11.20;99.90;;;;;;5101137;28;20028;-72
2024/03/15 04:07:57;;;;;;;19.48;12.50;;;11.20;99.90;;;;;;5102505;28;20075;-71
2024/03/15 04:10:23;;;;;;;23.63;13.30;;;11.20;99.90;;;;;;5103226;28;20031;-72
2024/03/15 04:12:49;;;;;;;21.95;13.23;;;11.20;99.90;;;;;;5102405;28;20050;-72
2024/03/15 04:15:17;;;;;;;19.45;13.20;;;11.20;99.90;;;;;;5101363;28;20048;-73
2024/03/15 04:17:43;;;;;;;18.52;12.40;;;11.10;99.90;;;;;;5102693;28;20031;-71
2024/03/15 04:20:12;;;;;;;25.92;13.18;;;11.20;99.90;;;;;;5102256;28;20020;-72
2024/03/15 04:22:45;;;;;;;23.05;13.38;;;11.10;99.90;;;;;;5101932;28;20028;-72
2024/03/15 04:25:11;;;;;;;22.23;12.85;;;11.20;99.90;;;;;;5101612;28;20062;-71
2024/03/15 04:27:37;;;;;;;20.58;13.15;;;11.10;99.90;;;;;;5101381;28;20123;-72
2024/03/15 04:30:13;;;;;;;21.65;13.43;;;11.10;99.90;;;;;;5102204;28;20469;-72
2024/03/15 04:32:46;;;;;;;22.83;12.88;;;11.10;99.90;;;;;;5102017;28;20032;-72
2024/03/15 04:35:18;;;;;;;26.52;13.10;;;11.10;99.90;;;;;;5102565;28;20024;-72
2024/03/15 04:37:44;;;;;;;24.90;13.40;;;11.10;99.90;;;;;;5101948;28;20114;-71
2024/03/15 04:40:10;;;;;;;23.92;13.43;;;11.00;99.90;;;;;;5100399;28;20078;-71
2024/03/15 04:42:36;;;;;;;21.88;13.25;;;11.10;99.90;;;;;;5100500;28;20028;-71
2024/03/15 04:45:04;;;;;;;22.30;12.98;;;11.00;99.90;;;;;;5100937;28;20078;-72
2024/03/15 04:47:30;;;;;;;20.52;13.45;;;11.00;99.90;;;;;;5101805;28;20031;-72
2024/03/15 04:49:55;;;;;;;21.42;12.88;;;11.00;99.90;;;;;;5101476;28;20020;-73
2024/03/15 04:52:22;;;;;;;21.33;13.27;;;11.00;99.90;;;;;;5102508;28;20153;-72
2024/03/15 04:54:48;;;;;;;22.15;13.65;;;11.00;99.90;;;;;;5102385;28;20478;-73
2024/03/15 04:57:18;;;;;;;21.92;12.35;;;11.00;99.90;;;;;;5102121;28;20028;-71
2024/03/15 04:59:45;;;;;;;23.00;12.57;;;11.00;99.90;;;;;;5101674;28;20032;-71
2024/03/15 05:02:11;;;;;;;23.65;12.02;;;11.00;99.90;;;;;;5102153;28;20111;-73
2024/03/15 05:04:37;;;;;;;23.17;13.07;;;11.00;99.90;;;;;;5102098;28;20027;-71
2024/03/15 05:07:02;;;;;;;21.83;13.20;;;11.00;99.90;;;;;;5101728;28;20024;-73
2024/03/15 05:09:29;;;;;;;23.92;13.38;;;11.00;99.90;;;;;;5102068;28;20044;-72
2024/03/15 05:11:54;;;;;;;21.63;12.90;;;10.90;99.90;;;;;;5101846;28;20097;-73
2024/03/15 05:14:20;;;;;;;27.08;13.25;;;10.90;99.90;;;;;;5102374;28;20526;-72
2024/03/15 05:16:55;;;;;;;22.65;13.63;;;10.90;99.90;;;;;;5098847;28;20471;-72
2024/03/15 05:19:22;;;;;;;23.70;12.90;;;11.00;99.90;;;;;;5101036;28;20062;-72
2024/03/15 05:21:47;;;;;;;22.90;13.10;;;11.00;99.90;;;;;;5090198;28;20035;-70
2024/03/15 05:24:13;;;;;;;22.05;12.98;;;11.00;99.90;;;;;;5100587;28;20028;-70
2024/03/15 05:26:38;;;;;;;23.23;13.48;;;11.00;99.90;;;;;;5101148;28;20031;-69
2024/03/15 05:29:04;;;;;;;23.52;12.70;;;11.00;99.90;;;;;;5100816;28;20032;-70
2024/03/15 05:31:30;;;;;;;24.02;14.07;;;11.00;99.90;;;;;;5101214;28;20437;-73
2024/03/15 05:33:58;;;;;;;21.83;13.00;;;11.00;99.90;;;;;;5101838;28;20054;-70
2024/03/15 05:36:23;;;;;;;22.75;13.65;;;11.00;99.90;;;;;;5102379;28;20061;-71
2024/03/15 05:38:49;;;;;;;23.25;13.60;;;11.00;99.90;;;;;;5101743;28;20029;-71
2024/03/15 05:41:15;;;;;;;24.05;13.63;;;11.10;99.90;;;;;;5099042;28;20020;-70
2024/03/15 05:43:41;;;;;;;24.33;14.18;;;11.10;99.90;;;;;;5097528;28;20031;-70
2024/03/15 05:46:07;;;;;;;24.33;14.30;;;11.10;99.90;;;;;;5094709;28;20020;-69
2024/03/15 05:48:33;;;;;;;24.13;15.27;;;11.10;99.90;;;;;;5101879;28;20028;-69
2024/03/15 05:51:00;;;;;;;26.20;14.35;;;11.10;99.90;;;;;;5091774;28;20028;-71
2024/03/15 05:53:26;;;;;;;23.48;14.65;;;11.10;99.90;;;;;;5096829;28;20029;-70
2024/03/15 05:55:52;;;;;;;27.33;14.70;;;11.20;99.90;;;;;;5101702;28;20024;-71
2024/03/15 05:58:17;;;;;;;25.40;14.45;;;11.20;99.90;;;;;;5102140;28;21087;-70
2024/03/15 06:00:43;;;;;;;23.98;14.15;;;11.20;99.90;;;;;;5104803;28;20036;-69
2024/03/15 06:03:09;;;;;;;25.35;14.88;;;11.20;99.90;;;;;;5100947;28;20108;-71
2024/03/15 06:05:35;;;;;;;28.70;15.00;;;11.20;99.90;;;;;;5103689;28;20089;-71
2024/03/15 06:08:01;;;;;;;26.48;14.82;;;11.20;99.90;;;;;;5104675;28;20473;-70
2024/03/15 06:10:28;;;;;;;26.25;14.82;;;11.20;99.90;;;;;;5104086;28;20028;-72
2024/03/15 06:12:55;;;;;;;26.40;14.48;;;11.20;99.90;;;;;;5104603;28;20028;-72
2024/03/15 06:15:21;;;;;;;29.33;14.25;;;11.30;99.90;;;;;;5104818;28;20120;-70
2024/03/15 06:17:47;;;;;;;26.30;14.65;;;11.30;99.90;;;;;;5104899;28;20388;-71
2024/03/15 06:20:13;;;;;;;26.15;15.23;;;11.30;99.90;;;;;;5105215;28;20039;-71
2024/03/15 06:22:38;;;;;;;26.88;14.68;;;11.40;99.90;;;;;;5104570;28;20035;-71
2024/03/15 06:25:05;;;;;;;29.20;14.68;;;11.40;99.90;;;;;;5104941;28;20028;-71
2024/03/15 06:27:31;;;;;;;30.23;15.73;;;11.40;99.90;;;;;;5103564;28;20108;-71
2024/03/15 06:29:57;;;;;;;28.65;14.50;;;11.40;99.90;;;;;;5102462;28;20024;-71
2024/03/15 06:32:26;;;;;;;26.50;14.43;;;11.50;99.90;;;;;;5102676;28;20067;-71
2024/03/15 06:34:57;;;;;;;24.13;14.98;;;11.50;99.90;;;;;;5101600;28;20115;-72
2024/03/15 06:37:25;;;;;;;34.10;16.23;;;11.60;99.90;;;;;;5103645;28;20051;-70
2024/03/15 06:40:01;;;;;;;26.92;14.88;;;11.60;99.90;;;;;;5102339;28;20500;-71
2024/03/15 06:43:13;;;;;;;27.70;14.68;;;11.60;99.90;;;;;;5103217;28;20020;-71
2024/03/15 06:45:26;;;;;;;28.23;15.48;;;11.70;99.90;;;;;;5094365;28;20032;-71
2024/03/15 06:48:03;;;;;;;26.60;14.35;;;11.70;99.90;;;;;;5104175;28;20106;-71
2024/03/15 06:50:48;;;;;;;28.38;14.85;;;11.70;99.90;;;;;;5103632;28;20115;-70
2024/03/15 06:53:16;;;;;;;29.70;14.48;;;11.80;99.90;;;;;;5101939;28;20103;-71
2024/03/15 06:55:43;;;;;;;33.00;14.98;;;11.80;99.90;;;;;;5104332;28;20028;-71
2024/03/15 06:58:09;;;;;;;30.63;14.45;;;11.90;99.90;;;;;;5102531;28;20031;-72
2024/03/15 07:00:35;;;;;;;30.98;14.55;;;11.90;99.90;;;;;;5104367;28;20436;-70
2024/03/15 07:03:01;;;;;;;26.75;13.30;;;12.00;99.90;;;;;;5104007;28;20487;-70
2024/03/15 07:05:28;;;;;;;26.13;14.45;;;12.10;99.90;;;;;;5103729;28;20032;-72
2024/03/15 07:07:53;;;;;;;26.27;14.60;;;12.10;99.90;;;;;;5102884;28;20039;-71
2024/03/15 07:10:19;;;;;;;26.00;13.30;;;12.10;99.90;;;;;;5102483;28;20107;-69
2024/03/15 07:12:46;;;;;;;33.60;14.52;;;12.20;99.90;;;;;;5103531;28;20064;-70
2024/03/15 07:15:15;;;;;;;34.03;13.95;;;12.20;99.90;;;;;;5103219;28;20024;-70
2024/03/15 07:17:43;;;;;;;26.70;13.90;;;12.30;99.90;;;;;;5102878;28;20107;-71
2024/03/15 07:20:12;;;;;;;30.10;13.95;;;12.30;99.90;;;;;;5103314;28;20016;-70
2024/03/15 07:22:40;;;;;;;25.52;13.60;;;12.30;99.90;;;;;;5103401;28;20477;-70
2024/03/15 07:25:10;;;;;;;26.38;13.30;;;12.40;99.90;;;;;;5103433;28;20107;-70
2024/03/15 07:27:40;;;;;;;21.85;12.40;;;12.40;99.90;;;;;;5103604;28;20024;-71
2024/03/15 07:30:11;;;;;;;21.85;12.23;;;12.40;99.90;;;;;;5103219;28;20030;-69
2024/03/15 07:32:37;;;;;;;22.88;12.15;;;12.40;99.90;;;;;;5103153;28;20089;-71
2024/03/15 07:35:04;;;;;;;21.40;11.35;;;12.50;99.90;;;;;;5103478;28;20020;-73
2024/03/15 07:37:32;;;;;;;28.52;12.05;;;12.50;99.90;;;;;;5102755;28;20099;-70
2024/03/15 07:39:57;;;;;;;22.92;12.15;;;12.60;99.90;;;;;;5103258;28;20481;-71
2024/03/15 07:42:23;;;;;;;22.50;12.18;;;12.60;99.90;;;;;;5103606;28;20020;-70
2024/03/15 07:44:49;;;;;;;22.55;12.57;;;12.60;99.90;;;;;;5103300;28;20032;-69
2024/03/15 07:47:15;;;;;;;19.85;11.70;;;12.60;99.90;;;;;;5102836;28;20051;-71
2024/03/15 07:49:41;;;;;;;24.80;13.43;;;12.70;99.90;;;;;;5103048;28;20016;-70
2024/03/15 07:52:07;;;;;;;19.55;11.75;;;12.70;99.90;;;;;;5102960;28;20032;-71
2024/03/15 07:54:33;;;;;;;23.95;14.02;;;12.60;99.90;;;;;;5103128;28;20028;-73
2024/03/15 07:56:59;;;;;;;27.85;14.65;;;12.60;99.90;;;;;;5102889;28;20107;-72
2024/03/15 07:59:24;;;;;;;25.13;14.07;;;12.40;99.90;;;;;;5103162;28;20039;-72
2024/03/15 08:01:50;;;;;;;27.85;13.30;;;12.30;99.90;;;;;;5103095;28;20097;-72
2024/03/15 08:04:15;;;;;;;27.73;15.30;;;12.20;99.90;;;;;;5102759;28;20035;-72
2024/03/15 08:06:41;;;;;;;38.38;16.48;;;12.10;99.90;;;;;;5102888;28;20016;-71
2024/03/15 08:09:07;;;;;;;34.00;17.55;;;12.10;99.90;;;;;;5101578;28;20045;-71
2024/03/15 08:11:36;;;;;;;30.23;17.13;;;11.90;99.90;;;;;;5101100;28;20051;-71
2024/03/15 08:14:11;;;;;;;33.63;17.90;;;11.90;99.90;;;;;;5102809;28;20108;-74
2024/03/15 08:16:37;;;;;;;30.80;18.13;;;11.80;99.90;;;;;;5102215;28;20020;-70
2024/03/15 08:19:07;;;;;;;37.72;17.80;;;11.80;99.90;;;;;;5100808;28;20046;-72
2024/03/15 08:21:34;;;;;;;31.60;18.95;;;11.80;99.90;;;;;;5101777;28;20419;-70
2024/03/15 08:24:09;;;;;;;34.85;18.05;;;11.80;99.90;;;;;;5100584;28;20028;-72
2024/03/15 08:26:39;;;;;;;36.28;18.17;;;11.70;99.90;;;;;;5101982;28;20020;-71
2024/03/15 08:29:05;;;;;;;36.00;19.98;;;11.80;99.90;;;;;;5101522;28;20040;-69
2024/03/15 08:31:30;;;;;;;35.45;18.25;;;11.80;99.90;;;;;;5101910;28;20562;-71
2024/03/15 08:33:59;;;;;;;32.00;16.33;;;11.90;99.90;;;;;;5102065;28;20016;-72
2024/03/15 08:36:25;;;;;;;33.70;18.85;;;11.90;99.90;;;;;;5102381;28;20020;-71
2024/03/15 08:38:51;;;;;;;35.10;18.80;;;11.90;99.90;;;;;;5100886;28;20095;-73
2024/03/15 08:41:17;;;;;;;33.25;17.88;;;11.90;99.90;;;;;;5100978;28;20144;-70
2024/03/15 08:43:42;;;;;;;37.00;20.65;;;12.00;99.90;;;;;;5102396;28;20084;-71
2024/03/15 08:46:09;;;;;;;42.20;21.20;;;12.00;99.90;;;;;;5097983;28;20039;-71
2024/03/15 08:48:34;;;;;;;43.60;22.10;;;12.10;99.90;;;;;;5099920;28;20035;-71
2024/03/15 08:51:03;;;;;;;35.40;19.95;;;12.10;99.90;;;;;;5097724;28;20020;-71
2024/03/15 08:53:29;;;;;;;36.22;20.08;;;12.20;99.90;;;;;;5099137;28;20070;-70
2024/03/15 08:55:57;;;;;;;37.75;19.83;;;12.30;99.90;;;;;;5101044;28;20023;-71
2024/03/15 08:58:26;;;;;;;37.65;19.65;;;12.30;99.90;;;;;;5102259;28;20026;-70
2024/03/15 09:00:54;;;;;;;32.25;17.88;;;12.40;99.90;;;;;;5099565;28;20049;-72
2024/03/15 09:03:20;;;;;;;36.70;19.85;;;12.40;99.90;;;;;;5098979;28;20032;-73
2024/03/15 09:05:46;;;;;;;35.05;18.60;;;12.40;99.90;;;;;;5100865;28;20043;-71
2024/03/15 09:08:12;;;;;;;31.20;17.60;;;12.50;99.90;;;;;;5099920;28;20048;-73
2024/03/15 09:10:38;;;;;;;30.52;16.20;;;12.60;99.90;;;;;;5100785;28;20039;-71
2024/03/15 09:13:04;;;;;;;29.75;16.67;;;12.60;99.90;;;;;;5101876;28;20047;-72
2024/03/15 09:15:30;;;;;;;31.25;16.08;;;12.60;99.90;;;;;;5101220;28;20016;-70
2024/03/15 09:17:59;;;;;;;29.08;17.40;;;12.80;99.90;;;;;;5099039;28;20027;-70
2024/03/15 09:22:56;;;;;;;31.52;15.90;;;12.80;99.90;;;;;;5101616;28;20027;-71
2024/03/15 09:25:23;;;;;;;23.98;15.45;;;12.80;99.90;;;;;;5100086;28;20032;-69
2024/03/15 09:27:52;;;;;;;33.28;15.65;;;12.80;99.90;;;;;;5099965;28;20092;-70
2024/03/15 09:30:42;;;;;;;27.20;17.05;;;12.80;99.90;;;;;;5099929;28;20028;-71
2024/03/15 09:33:09;;;;;;;26.88;15.90;;;12.80;99.90;;;;;;5101505;28;20476;-70
2024/03/15 09:35:40;;;;;;;29.52;16.55;;;12.90;99.90;;;;;;5105503;28;20031;-71
2024/03/15 09:38:06;;;;;;;30.67;15.98;;;13.10;99.90;;;;;;5104511;28;20035;-69
2024/03/15 09:40:33;;;;;;;25.00;14.93;;;13.20;99.90;;;;;;5105408;28;20031;-72
2024/03/15 09:42:59;;;;;;;27.83;15.50;;;13.30;99.90;;;;;;5103614;28;20020;-71
2024/03/15 09:45:26;;;;;;;27.52;14.65;;;13.30;99.90;;;;;;5102353;28;20093;-72
2024/03/15 09:47:53;;;;;;;22.75;14.55;;;13.40;99.90;;;;;;5105136;28;20024;-73
2024/03/15 09:50:24;;;;;;;26.13;15.05;;;13.40;99.90;;;;;;5104226;28;20027;-69
2024/03/15 09:52:55;;;;;;;22.95;12.95;;;13.40;99.90;;;;;;5105013;28;20040;-71
2024/03/15 09:55:21;;;;;;;26.02;14.95;;;13.40;99.90;;;;;;5099401;28;20027;-71
2024/03/15 09:57:49;;;;;;;20.17;12.02;;;13.30;99.90;;;;;;5103139;28;20103;-72
2024/03/15 10:00:16;;;;;;;27.02;15.15;;;13.20;99.90;;;;;;5100880;28;20032;-72
2024/03/15 10:02:44;;;;;;;24.10;14.50;;;13.20;99.90;;;;;;5103895;28;20024;-71
2024/03/15 10:05:12;;;;;;;25.55;14.70;;;13.20;99.90;;;;;;5104138;28;20055;-73
2024/03/15 10:07:38;;;;;;;21.83;13.73;;;13.10;99.90;;;;;;5100230;28;20048;-72
2024/03/15 10:10:05;;;;;;;27.15;14.52;;;13.10;99.90;;;;;;5102958;28;20102;-73
2024/03/15 10:12:33;;;;;;;22.08;13.70;;;13.10;99.90;;;;;;5103195;28;20042;-71
2024/03/15 10:14:59;;;;;;;22.83;14.93;;;13.30;99.90;;;;;;5103651;28;20125;-70
2024/03/15 10:17:25;;;;;;;25.23;13.90;;;13.40;99.90;;;;;;5104687;28;20020;-71
2024/03/15 10:19:50;;;;;;;21.40;14.30;;;13.50;99.90;;;;;;5105086;28;20032;-70
2024/03/15 10:22:16;;;;;;;22.85;14.77;;;13.70;99.90;;;;;;5105232;28;20035;-72
2024/03/15 10:24:42;;;;;;;24.58;15.50;;;13.80;99.90;;;;;;5104693;28;20070;-72
2024/03/15 10:27:14;;;;;;;23.17;14.45;;;13.90;99.90;;;;;;5105106;28;20021;-70
2024/03/15 10:29:40;;;;;;;21.45;14.27;;;13.90;99.90;;;;;;5104918;28;20036;-71
2024/03/15 10:32:10;;;;;;;21.15;13.18;;;14.10;99.90;;;;;;5104508;28;20039;-71
2024/03/15 10:34:38;;;;;;;20.33;12.57;;;14.10;99.90;;;;;;5103003;28;20020;-73
2024/03/15 10:37:10;;;;;;;20.60;14.07;;;14.00;99.90;;;;;;5104646;28;20028;-69
2024/03/15 10:39:35;;;;;;;20.52;12.68;;;14.20;99.90;;;;;;5104074;28;20078;-70
2024/03/15 10:42:02;;;;;;;18.13;12.73;;;14.60;99.90;;;;;;5104514;28;20453;-71
2024/03/15 10:44:29;;;;;;;20.50;12.05;;;14.60;99.90;;;;;;5103420;28;20035;-72
2024/03/15 10:46:54;;;;;;;19.52;11.85;;;14.90;99.90;;;;;;5103448;28;20024;-72
2024/03/15 10:49:21;;;;;;;17.92;10.75;;;15.00;99.90;;;;;;5103694;28;20016;-72
2024/03/15 10:51:48;;;;;;;14.13;9.30;;;15.30;99.90;;;;;;5104522;28;20057;-70
2024/03/15 10:54:17;;;;;;;13.73;8.65;;;15.30;99.90;;;;;;5103607;28;20070;-71
2024/03/15 10:56:43;;;;;;;13.07;9.18;;;15.20;99.90;;;;;;5102158;28;20039;-71
2024/03/15 10:59:10;;;;;;;13.85;8.93;;;15.10;99.90;;;;;;5104044;28;20020;-69
2024/03/15 11:01:37;;;;;;;12.48;7.50;;;15.00;99.90;;;;;;5104115;28;20052;-72
2024/03/15 11:04:03;;;;;;;18.05;8.90;;;14.80;99.90;;;;;;5104231;28;20060;-71
2024/03/15 11:06:43;;;;;;;15.25;9.50;;;14.60;99.90;;;;;;5103392;28;20076;-71
2024/03/15 11:09:19;;;;;;;16.58;9.30;;;14.50;99.90;;;;;;5102121;28;20408;-70
2024/03/15 11:11:55;;;;;;;15.93;9.40;;;14.40;99.90;;;;;;5102344;28;20773;-71
2024/03/15 11:14:22;;;;;;;14.60;9.35;;;14.30;99.90;;;;;;5103293;28;20017;-71
2024/03/15 11:16:56;;;;;;;16.98;8.65;;;14.30;99.90;;;;;;5103698;28;20032;-69
2024/03/15 11:19:22;;;;;;;18.33;10.53;;;14.30;99.90;;;;;;5103519;28;20023;-70
2024/03/15 11:21:47;;;;;;;15.25;8.77;;;14.20;99.90;;;;;;5103538;28;20258;-69
2024/03/15 11:24:16;;;;;;;14.13;9.50;;;14.10;99.90;;;;;;5103965;28;20384;-71
2024/03/15 11:26:41;;;;;;;18.48;9.00;;;14.10;99.90;;;;;;5103100;28;20028;-70
2024/03/15 11:29:19;;;;;;;14.95;9.57;;;14.10;99.90;;;;;;5103469;28;20050;-71
2024/03/15 11:31:46;;;;;;;13.75;9.23;;;14.00;99.90;;;;;;5103346;28;20062;-72
2024/03/15 11:34:11;;;;;;;12.68;8.70;;;14.00;99.90;;;;;;5101952;28;20016;-71
2024/03/15 11:36:37;;;;;;;16.27;9.45;;;14.10;99.90;;;;;;5103517;28;20027;-70
2024/03/15 11:39:08;;;;;;;14.77;8.85;;;14.10;99.90;;;;;;5103517;28;20035;-70
2024/03/15 11:41:37;;;;;;;18.80;9.25;;;14.10;99.90;;;;;;5102756;28;20041;-72
2024/03/15 11:44:04;;;;;;;14.57;9.50;;;14.10;99.90;;;;;;5102894;28;20567;-71
2024/03/15 11:46:29;;;;;;;18.10;9.45;;;14.10;99.90;;;;;;5103166;28;20028;-71
2024/03/15 11:48:55;;;;;;;14.57;10.25;;;14.20;99.90;;;;;;5102554;28;20419;-71
2024/03/15 11:51:20;;;;;;;22.20;9.98;;;14.00;99.90;;;;;;5103347;28;20036;-72
2024/03/15 11:53:46;;;;;;;15.45;9.65;;;14.00;99.90;;;;;;5103126;28;20039;-73
2024/03/15 11:56:11;;;;;;;19.02;9.88;;;14.00;99.90;;;;;;5101251;28;20019;-71
2024/03/15 11:58:40;;;;;;;13.98;9.38;;;13.90;99.90;;;;;;5103417;28;20020;-70
2024/03/15 12:01:06;;;;;;;17.48;9.43;;;14.00;99.90;;;;;;5102519;28;20034;-71
2024/03/15 12:03:32;;;;;;;17.52;8.52;;;13.90;99.90;;;;;;5102813;28;20043;-71
2024/03/15 12:06:00;;;;;;;13.85;8.05;;;14.00;99.90;;;;;;5103091;28;20012;-68
2024/03/15 12:08:29;;;;;;;15.38;8.90;;;14.00;99.90;;;;;;5101219;28;20096;-70
2024/03/15 12:10:56;;;;;;;15.30;9.50;;;13.90;99.90;;;;;;5102788;28;20024;-70
2024/03/15 12:13:27;;;;;;;15.30;8.93;;;14.10;99.90;;;;;;5101749;28;20032;-68
2024/03/15 12:15:53;;;;;;;14.15;8.57;;;14.10;99.90;;;;;;5101159;28;20066;-69
2024/03/15 12:18:20;;;;;;;14.85;8.70;;;14.20;99.90;;;;;;5102268;28;20020;-71
2024/03/15 12:20:47;;;;;;;12.98;8.25;;;14.30;99.90;;;;;;5102825;28;20066;-70
2024/03/15 12:23:17;;;;;;;19.05;9.52;;;14.40;99.90;;;;;;5098830;28;20024;-70
2024/03/15 12:25:43;;;;;;;17.73;9.30;;;14.50;99.90;;;;;;5102397;28;20028;-71
2024/03/15 12:28:12;;;;;;;15.32;9.25;;;14.60;99.90;;;;;;5102347;28;20016;-72
2024/03/15 12:30:40;;;;;;;15.35;9.48;;;14.70;99.90;;;;;;5101782;28;20063;-69